createdAt,value
2023-05-21T00:00:59.672Z,100.0000
2023-05-21T00:02:02.133Z,100.0000
2023-05-21T00:03:04.544Z,100.0000
2023-05-21T00:04:05.840Z,100.0000
2023-05-21T00:06:10.230Z,100.0000
2023-05-21T00:07:11.848Z,100.0000
2023-05-21T00:08:12.905Z,100.0000
2023-05-21T00:09:14.513Z,100.0000
2023-05-21T00:10:16.328Z,100.0000
2023-05-21T00:11:17.199Z,100.0000
2023-05-21T00:12:18.358Z,100.0000
2023-05-21T00:14:21.664Z,100.0000
2023-05-21T00:15:22.265Z,100.0000
2023-05-21T00:16:23.503Z,100.0000
2023-05-21T00:18:24.455Z,100.0000
2023-05-21T00:20:27.156Z,100.0000
2023-05-21T00:21:29.136Z,100.0000
2023-05-21T00:22:28.939Z,100.0000
2023-05-21T00:33:44.199Z,100.0000
2023-05-21T00:34:44.368Z,100.0000
2023-05-21T00:36:47.327Z,100.0000
2023-05-21T00:37:48.511Z,100.0000
2023-05-21T00:38:51.243Z,100.0000
2023-05-21T00:39:52.166Z,100.0000
2023-05-21T00:46:01.033Z,100.0000
2023-05-21T00:47:02.746Z,100.0000
2023-05-21T00:48:04.094Z,100.0000
2023-05-21T00:49:05.267Z,100.0000
2023-05-21T00:50:07.176Z,100.0000
2023-05-21T00:51:09.654Z,100.0000
2023-05-21T00:52:10.704Z,100.0000
2023-05-21T00:54:13.508Z,100.0000
2023-05-21T00:55:15.467Z,100.0000
2023-05-21T00:56:16.525Z,100.0000
2023-05-21T00:57:17.170Z,100.0000
2023-05-21T00:58:19.387Z,100.0000
2023-05-21T00:59:20.597Z,100.0000
2023-05-21T01:00:21.939Z,100.0000
2023-05-21T01:01:24.139Z,100.0000
2023-05-21T01:02:26.038Z,100.0000
2023-05-21T01:04:29.454Z,100.0000
2023-05-21T01:05:31.074Z,100.0000
2023-05-21T01:06:32.741Z,100.0000
2023-05-21T01:07:33.747Z,100.0000
2023-05-21T01:09:37.649Z,100.0000
2023-05-21T01:19:46.978Z,100.0000
2023-05-21T01:20:46.676Z,100.0000
2023-05-21T01:34:02.494Z,100.0000
2023-05-21T01:35:01.636Z,100.0000
2023-05-21T01:38:07.351Z,100.0000
2023-05-21T01:44:13.960Z,100.0000
2023-05-21T01:45:15.865Z,100.0000
2023-05-21T01:46:16.903Z,100.0000
2023-05-21T01:47:17.939Z,100.0000
2023-05-21T01:48:18.899Z,100.0000
2023-05-21T01:49:20.804Z,100.0000
2023-05-21T01:58:30.788Z,100.0000
2023-05-21T01:59:31.999Z,100.0000
2023-05-21T02:00:33.715Z,100.0000
2023-05-21T02:01:36.278Z,100.0000
2023-05-21T02:02:37.066Z,100.0000
2023-05-21T02:03:37.288Z,100.0000
2023-05-21T02:04:39.542Z,100.0000
2023-05-21T02:05:39.831Z,100.0000
2023-05-21T02:06:40.859Z,100.0000
2023-05-21T02:07:42.739Z,100.0000
2023-05-21T02:08:43.543Z,100.0000
2023-05-21T02:17:56.214Z,100.0000
2023-05-21T02:24:02.624Z,100.0000
2023-05-21T02:25:07.320Z,100.0000
2023-05-21T02:34:14.566Z,100.0000
2023-05-21T02:35:15.688Z,100.0000
2023-05-21T02:36:16.674Z,100.0000
2023-05-21T02:37:19.117Z,100.0000
2023-05-21T02:38:20.741Z,100.0000
2023-05-21T02:39:22.251Z,100.0000
2023-05-21T02:40:22.588Z,100.0000
2023-05-21T02:41:23.731Z,100.0000
2023-05-21T02:42:25.349Z,100.0000
2023-05-21T02:43:26.435Z,100.0000
2023-05-21T02:44:28.560Z,100.0000
2023-05-21T02:45:29.873Z,100.0000
2023-05-21T02:46:31.035Z,100.0000
2023-05-21T02:48:33.758Z,100.0000
2023-05-21T02:49:35.798Z,100.0000
2023-05-21T03:02:51.378Z,100.0000
2023-05-21T03:03:52.832Z,100.0000
2023-05-21T03:04:54.564Z,100.0000
2023-05-21T03:05:56.410Z,100.0000
2023-05-21T03:06:57.140Z,100.0000
2023-05-21T03:07:58.588Z,100.0000
2023-05-21T03:09:00.823Z,100.0000
2023-05-21T03:10:01.843Z,100.0000
2023-05-21T03:11:03.373Z,100.0000
2023-05-21T03:12:04.960Z,100.0000
2023-05-21T03:13:10.159Z,100.0000
2023-05-21T03:14:08.099Z,100.0000
2023-05-21T03:23:46.931Z,100.0000
2023-05-21T03:24:48.235Z,100.0000
2023-05-21T03:25:49.762Z,100.0000
2023-05-21T03:27:51.766Z,100.0000
2023-05-21T03:28:53.287Z,100.0000
2023-05-21T03:29:55.233Z,100.0000
2023-05-21T03:30:56.668Z,100.0000
2023-05-21T03:31:58.137Z,100.0000
2023-05-21T03:32:59.467Z,100.0000
2023-05-21T03:34:00.933Z,100.0000
2023-05-21T03:35:02.100Z,100.0000
2023-05-21T03:36:03.735Z,100.0000
2023-05-21T03:37:04.744Z,100.0000
2023-05-21T03:38:06.007Z,100.0000
2023-05-21T03:39:07.190Z,100.0000
2023-05-21T03:40:08.596Z,100.0000
2023-05-21T03:42:10.719Z,100.0000
2023-05-21T03:43:12.810Z,100.0000
2023-05-21T03:49:17.184Z,100.0000
2023-05-21T03:50:18.225Z,100.0000
2023-05-21T03:51:19.747Z,100.0000
2023-05-21T03:52:21.016Z,100.0000
2023-05-21T03:53:21.646Z,100.0000
2023-05-21T03:54:22.833Z,100.0000
2023-05-21T03:55:23.963Z,100.0000
2023-05-21T03:56:25.422Z,100.0000
2023-05-21T03:57:26.498Z,100.0000
2023-05-21T03:58:28.126Z,100.0000
2023-05-21T03:59:30.448Z,100.0000
2023-05-21T04:00:30.428Z,100.0000
2023-05-21T04:11:42.364Z,100.0000
2023-05-21T04:12:43.950Z,100.0000
2023-05-21T04:13:45.656Z,100.0000
2023-05-21T04:14:45.472Z,100.0000
2023-05-21T04:16:49.972Z,100.0000
2023-05-21T04:30:04.263Z,100.0000
2023-05-21T04:31:06.452Z,100.0000
2023-05-21T04:32:06.501Z,100.0000
2023-05-21T04:33:08.711Z,100.0000
2023-05-21T04:34:10.650Z,100.0000
2023-05-21T04:39:15.491Z,100.0000
2023-05-21T04:40:17.310Z,100.0000
2023-05-21T04:41:19.395Z,100.0000
2023-05-21T04:42:20.561Z,100.0000
2023-05-21T04:43:23.364Z,100.0000
2023-05-21T04:44:25.601Z,100.0000
2023-05-21T04:53:35.195Z,100.0000
2023-05-21T04:54:36.386Z,100.0000
2023-05-21T04:55:38.738Z,100.0000
2023-05-21T05:02:45.184Z,100.0000
2023-05-21T05:05:49.486Z,99.9760
2023-05-21T05:06:49.715Z,99.9641
2023-05-21T05:07:49.740Z,99.9570
2023-05-21T05:08:51.270Z,99.8264
2023-05-21T05:09:53.514Z,99.7948
2023-05-21T05:10:54.527Z,99.8458
2023-05-21T05:11:56.997Z,99.9074
2023-05-21T05:12:59.168Z,99.8425
2023-05-21T05:14:00.472Z,99.6367
2023-05-21T05:15:03.044Z,99.4636
2023-05-21T05:19:07.186Z,99.7728
2023-05-21T05:26:16.944Z,99.6865
2023-05-21T05:27:19.316Z,99.6845
2023-05-21T05:33:26.350Z,99.5605
2023-05-21T05:34:28.351Z,99.4213
2023-05-21T05:35:29.354Z,99.2335
2023-05-21T05:36:29.772Z,99.0846
2023-05-21T05:37:32.165Z,99.1218
2023-05-21T05:38:33.168Z,99.0008
2023-05-21T05:39:34.158Z,98.9162
2023-05-21T05:40:35.887Z,98.8648
2023-05-21T05:41:37.060Z,98.8542
2023-05-21T05:42:37.959Z,98.8310
2023-05-21T05:43:38.939Z,98.7921
2023-05-21T05:44:40.996Z,98.6784
2023-05-21T05:53:48.431Z,98.6424
2023-05-21T05:55:51.828Z,97.7799
2023-05-21T05:56:53.424Z,97.9103
2023-05-21T05:57:54.347Z,97.8395
2023-05-21T05:58:55.239Z,97.4670
2023-05-21T05:59:56.907Z,97.3311
2023-05-21T06:00:57.810Z,97.2474
2023-05-21T06:01:58.343Z,97.3681
2023-05-21T06:02:59.477Z,97.4639
2023-05-21T06:04:00.635Z,97.4159
2023-05-21T06:05:02.210Z,97.5440
2023-05-21T06:06:04.246Z,97.1787
2023-05-21T06:19:15.295Z,95.8568
2023-05-21T06:20:17.370Z,95.3167
2023-05-21T06:21:17.507Z,95.3262
2023-05-21T06:22:18.623Z,94.4788
2023-05-21T06:24:21.281Z,94.0499
2023-05-21T06:25:21.878Z,94.5319
2023-05-21T06:26:23.270Z,94.6882
2023-05-21T06:27:26.154Z,94.0416
2023-05-21T06:28:27.466Z,93.8510
2023-05-21T06:45:49.487Z,90.2570
2023-05-21T06:46:49.314Z,89.1799
2023-05-21T06:47:51.719Z,89.3802
2023-05-21T06:48:52.129Z,89.9019
2023-05-21T06:52:56.017Z,87.8317
2023-05-21T06:55:00.129Z,88.4742
2023-05-21T06:56:00.710Z,87.9294
2023-05-21T06:57:01.154Z,87.8737
2023-05-21T06:58:02.980Z,87.9891
2023-05-21T06:59:05.270Z,87.3852
2023-05-21T07:06:13.112Z,86.6978
2023-05-21T07:07:14.838Z,86.4955
2023-05-21T07:08:17.342Z,87.2738
2023-05-21T07:09:18.114Z,86.7258
2023-05-21T07:26:39.941Z,83.4067
2023-05-21T07:27:40.701Z,82.8421
2023-05-21T07:28:41.488Z,83.9988
2023-05-21T07:30:44.717Z,84.2075
2023-05-21T07:31:45.905Z,83.9589
2023-05-21T07:32:47.239Z,82.7890
2023-05-21T07:33:48.976Z,81.6618
2023-05-21T07:34:50.558Z,81.3261
2023-05-21T08:00:14.044Z,78.2207
2023-05-21T08:09:20.922Z,77.7204
2023-05-21T08:10:21.128Z,78.5282
2023-05-21T08:11:22.833Z,77.9436
2023-05-21T08:12:23.610Z,76.6126
2023-05-21T08:13:24.241Z,76.7995
2023-05-21T08:14:25.688Z,75.9208
2023-05-21T08:15:26.696Z,75.8746
2023-05-21T08:16:27.027Z,73.3906
2023-05-21T08:17:29.615Z,73.4225
2023-05-21T08:18:29.937Z,73.3706
2023-05-21T08:19:30.937Z,70.7081
2023-05-21T08:20:33.438Z,72.7715
2023-05-21T08:21:33.818Z,70.9104
2023-05-21T08:22:34.422Z,71.6432
2023-05-21T08:23:35.385Z,75.4740
2023-05-21T08:24:35.618Z,74.2206
2023-05-21T08:26:37.661Z,72.1183
2023-05-21T08:27:37.481Z,74.5501
2023-05-21T08:28:39.542Z,72.8601
2023-05-21T08:29:41.688Z,73.1260
2023-05-21T08:30:42.282Z,73.6180
2023-05-21T08:31:42.239Z,69.9245
2023-05-21T08:33:46.553Z,73.5346
2023-05-21T08:34:46.834Z,74.1717
2023-05-21T08:44:53.922Z,67.9557
2023-05-21T08:45:56.360Z,70.1080
2023-05-21T08:46:56.754Z,69.0667
2023-05-21T08:49:00.385Z,65.3989
2023-05-21T08:50:02.209Z,69.8973
2023-05-21T08:51:03.006Z,68.9105
2023-05-21T08:52:04.050Z,68.5294
2023-05-21T08:53:19.732Z,68.1674
2023-05-21T08:56:07.949Z,66.4614
2023-05-21T08:57:08.140Z,69.7630
2023-05-21T09:01:20.281Z,72.7342
2023-05-21T09:05:23.983Z,69.2470
2023-05-21T09:07:27.224Z,64.7686
2023-05-21T09:08:28.439Z,66.3503
2023-05-21T09:09:29.800Z,63.0650
2023-05-21T09:10:31.210Z,62.0126
2023-05-21T09:11:31.734Z,64.1728
2023-05-21T09:12:33.859Z,63.9231
2023-05-21T09:13:39.476Z,62.3256
2023-05-21T09:23:44.089Z,61.0135
2023-05-21T09:27:50.209Z,65.1604
2023-05-21T09:28:51.944Z,66.3020
2023-05-21T09:29:53.612Z,66.1725
2023-05-21T09:31:00.209Z,67.5013
2023-05-21T09:43:13.319Z,52.6282
2023-05-21T09:45:17.846Z,61.1822
2023-05-21T09:46:17.701Z,62.6284
2023-05-21T09:47:19.929Z,61.4036
2023-05-21T09:48:20.126Z,59.9589
2023-05-21T09:49:21.261Z,61.9048
2023-05-21T09:51:23.697Z,61.6234
2023-05-21T09:52:23.869Z,58.9115
2023-05-21T09:53:25.475Z,59.4190
2023-05-21T09:54:26.882Z,60.7374
2023-05-21T09:55:28.537Z,61.5632
2023-05-21T09:57:29.916Z,60.6738
2023-05-21T09:58:31.799Z,60.6747
2023-05-21T10:03:40.219Z,61.7131
2023-05-21T10:04:41.641Z,60.3692
2023-05-21T10:05:42.619Z,58.3299
2023-05-21T10:06:44.567Z,58.0487
2023-05-21T10:07:46.670Z,58.6508
2023-05-21T10:08:47.124Z,58.0981
2023-05-21T10:15:52.152Z,60.7576
2023-05-21T10:16:54.173Z,59.6359
2023-05-21T10:20:58.629Z,62.3902
2023-05-21T10:21:59.580Z,64.2199
2023-05-21T10:23:00.824Z,64.3485
2023-05-21T10:24:01.396Z,57.8205
2023-05-21T10:25:02.031Z,57.5781
2023-05-21T10:26:04.247Z,60.0802
2023-05-21T10:27:04.328Z,61.2661
2023-05-21T10:28:07.401Z,63.4462
2023-05-21T10:35:12.596Z,61.9999
2023-05-21T10:36:14.170Z,60.8896
2023-05-21T10:51:35.306Z,53.6734
2023-05-21T10:52:37.469Z,52.7971
2023-05-21T10:53:38.151Z,54.3206
2023-05-21T10:54:38.759Z,53.2284
2023-05-21T10:55:39.278Z,53.5566
2023-05-21T10:56:39.880Z,55.7137
2023-05-21T10:57:42.140Z,60.7018
2023-05-21T11:06:50.998Z,58.7983
2023-05-21T11:07:51.447Z,59.1771
2023-05-21T11:08:55.848Z,59.8648
2023-05-21T11:09:53.256Z,55.1683
2023-05-21T11:20:04.347Z,58.6658
2023-05-21T11:22:07.511Z,57.1768
2023-05-21T11:23:07.969Z,57.0041
2023-05-21T11:24:08.324Z,57.6747
2023-05-21T11:25:10.243Z,58.6426
2023-05-21T11:26:12.332Z,60.1869
2023-05-21T11:27:12.953Z,59.2811
2023-05-21T11:29:15.289Z,59.1136
2023-05-21T11:30:16.371Z,57.7550
2023-05-21T11:31:18.121Z,58.7086
2023-05-21T11:32:19.313Z,58.4091
2023-05-21T11:33:20.559Z,58.5594
2023-05-21T11:34:22.974Z,54.8853
2023-05-21T11:35:23.086Z,50.9654
2023-05-21T11:36:24.304Z,52.0907
2023-05-21T11:50:38.959Z,54.3769
2023-05-21T12:00:52.878Z,50.2873
2023-05-21T12:01:54.383Z,49.4234
2023-05-21T12:02:55.561Z,43.9284
2023-05-21T12:06:00.712Z,48.5331
2023-05-21T12:07:01.961Z,47.8753
2023-05-21T12:08:02.366Z,48.7931
2023-05-21T12:09:03.426Z,50.7010
2023-05-21T12:10:04.432Z,52.0386
2023-05-21T12:11:05.141Z,51.5012
2023-05-21T12:26:18.395Z,51.3990
2023-05-21T12:27:20.235Z,51.7792
2023-05-21T12:43:36.528Z,52.6986
2023-05-21T12:44:38.909Z,52.5161
2023-05-21T12:46:41.812Z,54.6266
2023-05-21T12:56:56.465Z,54.2655
2023-05-21T12:57:57.217Z,54.9469
2023-05-21T13:02:59.646Z,56.5601
2023-05-21T13:05:00.159Z,55.7765
2023-05-21T13:08:05.022Z,52.6205
2023-05-21T13:09:06.648Z,51.3208
2023-05-21T13:10:08.190Z,56.6554
2023-05-21T13:11:10.929Z,54.5726
2023-05-21T13:12:12.952Z,55.2996
2023-05-21T13:20:19.403Z,53.5731
2023-05-21T13:21:21.278Z,55.4515
2023-05-21T13:22:22.280Z,55.3506
2023-05-21T13:23:25.118Z,57.8117
2023-05-21T13:30:31.230Z,55.4025
2023-05-21T13:33:35.802Z,56.0697
2023-05-21T13:34:36.378Z,55.7443
2023-05-21T13:35:36.443Z,53.6174
2023-05-21T13:36:37.314Z,53.2477
2023-05-21T13:37:37.312Z,53.1478
2023-05-21T13:39:39.998Z,54.8508
2023-05-21T13:40:41.086Z,53.0447
2023-05-21T13:41:41.283Z,50.4747
2023-05-21T13:42:41.377Z,49.5583
2023-05-21T13:43:43.898Z,51.7876
2023-05-21T13:44:45.710Z,50.6622
2023-05-21T13:52:53.935Z,50.0018
2023-05-21T13:53:57.034Z,51.6267
2023-05-21T13:58:56.834Z,49.5818
2023-05-21T13:59:57.490Z,50.4528
2023-05-21T14:10:12.778Z,44.9402
2023-05-21T14:11:13.080Z,47.4591
2023-05-21T14:13:20.555Z,48.7262
2023-05-21T14:15:18.624Z,47.4127
2023-05-21T14:16:20.523Z,49.6556
2023-05-21T14:17:22.699Z,47.8595
2023-05-21T14:19:25.248Z,49.0293
2023-05-21T14:21:26.610Z,48.3124
2023-05-21T14:22:26.899Z,45.4314
2023-05-21T14:32:36.944Z,46.3027
2023-05-21T14:33:37.922Z,44.8842
2023-05-21T14:34:38.832Z,45.0862
2023-05-21T14:36:42.208Z,42.7373
2023-05-21T14:37:42.836Z,46.1486
2023-05-21T14:38:44.040Z,46.0737
2023-05-21T14:39:43.884Z,45.8632
2023-05-21T14:42:48.416Z,47.1933
2023-05-21T14:43:49.075Z,43.8476
2023-05-21T14:44:49.499Z,46.7059
2023-05-21T14:45:50.911Z,43.3039
2023-05-21T14:46:50.959Z,42.2888
2023-05-21T14:47:52.365Z,45.9777
2023-05-21T14:48:54.103Z,44.3140
2023-05-21T14:49:55.876Z,45.5188
2023-05-21T14:50:56.529Z,47.4492
2023-05-21T14:51:58.463Z,44.9004
2023-05-21T14:52:58.772Z,50.4348
2023-05-21T14:53:59.296Z,59.7989
2023-05-21T14:56:01.431Z,46.4882
2023-05-21T14:57:01.681Z,51.2860
2023-05-21T14:59:05.210Z,44.0546
2023-05-21T15:00:05.769Z,49.6337
2023-05-21T15:01:06.648Z,50.1176
2023-05-21T15:02:07.422Z,61.9107
2023-05-21T15:03:08.078Z,54.1430
2023-05-21T15:05:09.795Z,43.9138
2023-05-21T15:06:09.585Z,50.7067
2023-05-21T15:08:12.492Z,59.5150
2023-05-21T15:09:13.246Z,61.4974
2023-05-21T15:12:18.549Z,58.5084
2023-05-21T15:21:29.358Z,53.7174
2023-05-21T15:22:30.721Z,46.2977
2023-05-21T15:31:39.688Z,40.4660
2023-05-21T15:32:39.787Z,41.1585
2023-05-21T15:33:40.937Z,41.5165
2023-05-21T15:34:40.930Z,41.1225
2023-05-21T15:35:44.828Z,42.2930
2023-05-21T15:36:44.068Z,42.4223
2023-05-21T15:37:45.042Z,41.7503
2023-05-21T15:38:45.522Z,42.5198
2023-05-21T15:40:48.151Z,40.3090
2023-05-21T15:42:49.870Z,38.6347
2023-05-21T15:43:51.553Z,39.7981
2023-05-21T15:44:52.893Z,42.1464
2023-05-21T15:45:53.501Z,43.6157
2023-05-21T15:46:54.341Z,44.4431
2023-05-21T15:47:54.541Z,44.4483
2023-05-21T15:48:56.179Z,45.5303
2023-05-21T15:49:58.327Z,41.9489
2023-05-21T15:50:58.864Z,43.9520
2023-05-21T15:52:00.210Z,42.9058
2023-05-21T15:53:02.396Z,41.7999
2023-05-21T15:56:32.936Z,44.6811
2023-05-21T15:58:39.240Z,44.6558
2023-05-21T16:18:30.648Z,46.0299
2023-05-21T16:19:33.235Z,46.3688
2023-05-21T16:25:40.391Z,46.0204
2023-05-21T16:26:42.035Z,44.5827
2023-05-21T16:27:42.524Z,50.7828
2023-05-21T16:32:49.049Z,48.6864
2023-05-21T16:33:49.911Z,50.1445
2023-05-21T16:34:51.454Z,55.3507
2023-05-21T16:35:54.387Z,53.9477
2023-05-21T16:36:57.508Z,55.4609
2023-05-21T16:59:51.213Z,50.7572
2023-05-21T17:06:57.248Z,47.2825
2023-05-21T17:15:07.174Z,56.9267
2023-05-21T17:16:07.300Z,57.5844
2023-05-21T17:17:09.363Z,60.4670
2023-05-21T17:18:12.334Z,65.7303
2023-05-21T17:19:12.436Z,61.4775
2023-05-21T17:20:13.629Z,60.4987
2023-05-21T17:21:15.417Z,59.9615
2023-05-21T17:23:19.284Z,65.7580
2023-05-21T17:24:21.258Z,64.6474
2023-05-21T17:25:21.862Z,63.2362
2023-05-21T17:37:34.613Z,62.0987
2023-05-21T17:52:55.680Z,69.2501
2023-05-21T17:53:56.674Z,68.0875
2023-05-21T17:54:56.862Z,66.8664
2023-05-21T17:57:00.389Z,70.8897
2023-05-21T17:58:02.940Z,71.7471
2023-05-21T17:59:04.508Z,69.9753
2023-05-21T18:00:05.598Z,69.1312
2023-05-21T18:08:17.774Z,71.9479
2023-05-21T18:20:30.802Z,71.1226
2023-05-21T18:21:31.486Z,72.5449
2023-05-21T18:22:32.982Z,71.8126
2023-05-21T18:24:35.469Z,71.9405
2023-05-21T18:28:39.716Z,74.1540
2023-05-21T18:29:40.949Z,72.9663
2023-05-21T18:30:41.225Z,72.8257
2023-05-21T18:31:41.982Z,73.6276
2023-05-21T18:32:42.676Z,74.1201
2023-05-21T18:33:42.749Z,71.2233
2023-05-21T18:34:44.713Z,73.7130
2023-05-21T18:35:45.544Z,71.1043
2023-05-21T18:49:57.728Z,73.8947
2023-05-21T18:50:59.956Z,70.1619
2023-05-21T18:52:00.506Z,67.7248
2023-05-21T18:53:01.762Z,73.4760
2023-05-21T18:54:03.102Z,71.1914
2023-05-21T18:56:03.175Z,71.7704
2023-05-21T18:57:04.745Z,71.3212
2023-05-21T18:58:07.025Z,69.9685
2023-05-21T18:59:09.114Z,72.1965
2023-05-21T19:00:09.594Z,71.8311
2023-05-21T19:02:13.127Z,71.7458
2023-05-21T19:03:14.844Z,72.7877
2023-05-21T19:04:15.991Z,73.0840
2023-05-21T19:12:22.726Z,71.0359
2023-05-21T19:13:24.706Z,72.6256
2023-05-21T19:14:25.869Z,72.9781
2023-05-21T19:15:26.455Z,72.6113
2023-05-21T19:16:28.705Z,72.3393
2023-05-21T19:17:30.729Z,73.1187
2023-05-21T19:25:38.373Z,74.8000
2023-05-21T19:28:42.970Z,73.0082
2023-05-21T19:29:44.205Z,73.1752
2023-05-21T19:30:45.383Z,75.3210
2023-05-21T19:31:47.287Z,76.6166
2023-05-21T19:32:48.699Z,74.0135
2023-05-21T19:33:50.265Z,73.6910
2023-05-21T19:34:52.300Z,75.0874
2023-05-21T19:35:54.052Z,75.1820
2023-05-21T19:36:56.062Z,73.6394
2023-05-21T19:37:56.157Z,73.6244
2023-05-21T19:38:57.543Z,73.8194
2023-05-21T19:39:59.808Z,74.3467
2023-05-21T19:41:01.203Z,74.4991
2023-05-21T19:42:02.873Z,75.0488
2023-05-21T19:48:08.294Z,79.2072
2023-05-21T19:49:10.224Z,77.0820
2023-05-21T19:50:11.919Z,78.0147
2023-05-21T19:51:12.441Z,76.9356
2023-05-21T19:52:12.577Z,74.5797
2023-05-21T19:53:14.229Z,75.1068
2023-05-21T19:54:15.276Z,77.9224
2023-05-21T19:55:15.314Z,78.0386
2023-05-21T19:56:15.867Z,78.8049
2023-05-21T19:57:16.109Z,80.1427
2023-05-21T19:58:17.873Z,78.9142
2023-05-21T19:59:19.684Z,76.7785
2023-05-21T20:01:21.949Z,77.4370
2023-05-21T20:02:23.477Z,76.7456
2023-05-21T20:03:24.722Z,76.5409
2023-05-21T20:05:27.352Z,75.9333
2023-05-21T20:28:53.787Z,80.2766
2023-05-21T20:29:55.542Z,81.8352
2023-05-21T20:30:55.773Z,81.1115
2023-05-21T20:31:57.056Z,78.0316
2023-05-21T20:32:59.325Z,81.1749
2023-05-21T20:34:01.616Z,82.0178
2023-05-21T20:35:04.380Z,81.6257
2023-05-21T20:45:15.343Z,83.2179
2023-05-21T20:46:16.482Z,81.4699
2023-05-21T20:47:17.716Z,83.7091
2023-05-21T20:48:19.030Z,84.6813
2023-05-21T20:49:19.754Z,83.6126
2023-05-21T20:51:23.049Z,83.9114
2023-05-21T21:03:38.839Z,84.3126
2023-05-21T21:04:39.290Z,84.7555
2023-05-21T21:05:39.735Z,85.1049
2023-05-21T21:06:41.843Z,84.6615
2023-05-21T21:07:42.051Z,86.2192
2023-05-21T21:08:42.131Z,86.0449
2023-05-21T21:09:44.584Z,84.9482
2023-05-21T21:10:46.472Z,84.3573
2023-05-21T21:11:47.923Z,84.5217
2023-05-21T21:13:50.935Z,85.0821
2023-05-21T21:14:51.658Z,84.0399
2023-05-21T21:16:54.237Z,85.1012
2023-05-21T21:17:56.288Z,85.1741
2023-05-21T21:18:57.350Z,82.1256
2023-05-21T21:28:06.943Z,83.3972
2023-05-21T21:29:08.408Z,82.3155
2023-05-21T21:30:10.066Z,83.8574
2023-05-21T21:31:11.759Z,83.4347
2023-05-21T21:32:14.081Z,83.3263
2023-05-21T21:33:14.000Z,83.6810
2023-05-21T21:39:24.786Z,84.1931
2023-05-21T21:40:25.702Z,84.2853
2023-05-21T21:42:28.643Z,84.6805
2023-05-21T21:43:29.445Z,84.8333
2023-05-21T21:44:29.555Z,84.5828
2023-05-21T21:45:31.266Z,84.8311
2023-05-21T21:46:33.157Z,84.5562
2023-05-21T21:47:34.468Z,84.8567
2023-05-21T21:48:36.367Z,84.3800
2023-05-21T21:49:37.898Z,83.1266
2023-05-21T21:50:40.054Z,82.8366
2023-05-21T22:01:53.543Z,82.5071
2023-05-21T22:02:55.353Z,82.7625
2023-05-21T22:03:56.375Z,84.5957
2023-05-21T22:04:58.458Z,85.4984
2023-05-21T22:05:59.078Z,85.2473
2023-05-21T22:07:00.259Z,84.5082
2023-05-21T22:08:01.906Z,85.0962
2023-05-21T22:09:03.728Z,85.2246
2023-05-21T22:17:11.182Z,82.0598
2023-05-21T22:23:16.172Z,81.8978
2023-05-21T22:24:32.134Z,81.9197
2023-05-21T22:30:54.836Z,81.1071
2023-05-21T22:31:56.466Z,81.5973
2023-05-21T22:32:58.762Z,81.1096
2023-05-21T22:33:58.786Z,81.4374
2023-05-21T22:34:59.349Z,80.6607
2023-05-21T22:37:04.085Z,81.0715
2023-05-21T22:38:04.944Z,80.2079
2023-05-21T22:39:05.652Z,80.5456
2023-05-21T22:40:06.857Z,81.1942
2023-05-21T22:41:08.724Z,82.0706
2023-05-21T22:42:09.297Z,83.1375
2023-05-21T22:43:10.539Z,83.0561
2023-05-21T22:52:21.352Z,80.7588
2023-05-21T22:53:23.136Z,80.1078
2023-05-21T22:57:29.846Z,78.5079
2023-05-21T23:06:39.922Z,77.7167
2023-05-21T23:07:41.053Z,76.2804
2023-05-21T23:08:43.632Z,76.5776
2023-05-21T23:09:45.511Z,76.6869
2023-05-21T23:10:47.599Z,76.9107
2023-05-21T23:11:47.458Z,76.2124
2023-05-21T23:12:47.951Z,76.1845
2023-05-21T23:14:52.025Z,76.1621
2023-05-21T23:16:54.839Z,76.3621
2023-05-21T23:17:55.261Z,76.5146
2023-05-21T23:18:56.574Z,77.3523
2023-05-21T23:19:57.882Z,77.5485
2023-05-21T23:30:41.807Z,78.2821
2023-05-21T23:42:55.313Z,80.4394
2023-05-21T23:43:57.181Z,80.8673
2023-05-21T23:44:58.989Z,80.7764
2023-05-21T23:46:00.466Z,79.9943
2023-05-21T23:47:02.438Z,80.4280
2023-05-21T23:48:03.938Z,80.3120
2023-05-21T23:49:06.583Z,80.7850
2023-05-21T23:50:08.531Z,81.5710
2023-05-21T23:51:08.360Z,81.1741
